Dayton, OR

11:56 AM PDT on September 01, 2014 (GMT -0700)
McMinnville Municipal | Change Station
CLOSE
Current Station
Airport
Location: McMinnville,
Elevation: 157 ft
Nearby Weather Stations

Elev 157 ft 45.19 °N, 123.14 °W | Updated 3 minutes ago

Clear
Clear
73 °F
Feels Like 73 °F
N
5
Wind Variable Wind from Variable

Today
High -- | Low -- °F
--% Chance of Precip.
Yesterday
High -- | Low -- °F
Precip. -- in
6:34 AM 7:49 PM
Waxing Crescent, 43% visible
Pressure 30.08 in
Visibility 10.0 miles
Clouds Clear
Dew Point 51 °F
Humidity 46%
Rainfall 0.00 in
Snow Depth Not available.
UV 7 out of 12
Pollen 3.50 out of 12
Air Quality Not available.
Flu Activity Not available.
METAR KMMV 011853Z AUTO VRB04KT 10SM CLR 23/11 A3008 RMK AO2 SLP184 T02280106

More Conditions Fewer Conditions

Pressure 30.08 in
Visibility 10.0 miles
Clouds Clear
Dew Point 51 °F
Humidity 46%
Rainfall 0.00 in
Snow Depth Not available.
UV 7 out of 12
Pollen 3.50 out of 12
Air Quality Not available.
Flu Activity Not available.
METAR KMMV 011853Z AUTO VRB04KT 10SM CLR 23/11 A3008 RMK AO2 SLP184 T02280106

More Conditions Fewer Conditions

10-Day Weather Forecast

Almanac

Astronomy

Sep. 01, 2014 Rise Set
Actual Time 6:34 AM PDT 7:49 PM PDT
Civil Twilight 6:03 AM PDT 8:19 PM PDT
Nautical Twilight 5:27 AM PDT 8:56 PM PDT
Astronomical Twilight 4:48 AM PDT 9:34 PM PDT
Moon 1:44 PM PDT 11:36 PM PDT
Length of Visible Light 14h 15m
Length of Day
13h 15m
Tomorrow will be 3m 2s shorter.
Waxing Crescent, 43% of the Moon is Illuminated
Today
Waxing Crescent
Sep 2
First Quarter
Sep 8
Full
Sep 15
Last Quarter
Sep 24
New

Today's Extremes

State Highs State Lows

Community

WunderPhotos

Upload Photos

1,749,359 photos uploaded!

Nearby

Snow Depth

Station Depth Elevation
Seine Creek 0 in 2000 ft
Saddle Mountain 5 in 3250 ft
Peavine Ridge 3 in 3500 ft
North Fork 1 in 3120 ft
Blazed Alder 0 in 3650 ft

Earthquake Activity

City Distance Mag. Time & Date
No recent earthquake activity has been reported nearby.
Minimum magnitude displayed is 2.5.

Coastal Water Temperatures

Place Temperature
No Stations Reporting

Nearby Weather Stations